createdAt,value
2022-10-11T00:01:03.797Z,2.72
2022-10-11T00:03:31.087Z,2.55
2022-10-11T00:05:58.294Z,2.60
2022-10-11T00:08:25.507Z,3.10
2022-10-11T00:10:58.081Z,2.92
2022-10-11T00:13:26.126Z,2.20
2022-10-11T00:15:53.762Z,2.20
2022-10-11T00:18:21.473Z,2.30
2022-10-11T00:20:48.782Z,2.50
2022-10-11T00:23:16.250Z,2.97
2022-10-11T00:25:43.451Z,2.78
2022-10-11T00:28:10.929Z,3.10
2022-10-11T00:30:43.019Z,3.47
2022-10-11T00:33:10.350Z,2.50
2022-10-11T00:35:41.444Z,3.05
2022-10-11T00:38:08.720Z,2.88
2022-10-11T00:40:35.967Z,2.60
2022-10-11T00:43:03.277Z,3.05
2022-10-11T00:45:30.441Z,2.63
2022-10-11T00:48:03.046Z,2.70
2022-10-11T00:50:33.689Z,2.42
2022-10-11T00:53:04.180Z,3.42
2022-10-11T00:55:35.676Z,2.63
2022-10-11T00:58:03.108Z,2.40
2022-10-11T01:00:30.371Z,3.15
2022-10-11T01:02:57.658Z,3.22
2022-10-11T01:05:29.481Z,2.38
2022-10-11T01:08:00.844Z,2.85
2022-10-11T01:10:28.876Z,2.40
2022-10-11T01:13:18.926Z,2.78
2022-10-11T01:15:50.964Z,3.10
2022-10-11T01:18:38.420Z,2.22
2022-10-11T01:21:19.704Z,2.58
2022-10-11T01:23:55.668Z,2.60
2022-10-11T01:26:33.515Z,3.35
2022-10-11T01:29:22.764Z,2.22
2022-10-11T01:32:01.171Z,2.65
2022-10-11T01:34:37.503Z,2.60
2022-10-11T01:37:30.981Z,2.80
2022-10-11T01:40:04.085Z,2.92
2022-10-11T01:42:31.686Z,2.60
2022-10-11T01:44:59.791Z,2.42
2022-10-11T01:47:27.090Z,2.92
2022-10-11T01:49:59.778Z,2.65
2022-10-11T01:52:29.709Z,2.63
2022-10-11T01:55:28.937Z,2.95
2022-10-11T01:58:27.316Z,2.55
2022-10-11T02:01:18.063Z,2.45
2022-10-11T02:04:02.866Z,3.13
2022-10-11T02:06:35.746Z,2.78
2022-10-11T02:09:17.021Z,2.53
2022-10-11T02:11:44.331Z,2.80
2022-10-11T02:14:26.630Z,2.25
2022-10-11T02:17:08.728Z,2.42
2022-10-11T02:19:38.868Z,2.55
2022-10-11T02:24:36.738Z,2.92
2022-10-11T02:27:05.139Z,2.58
2022-10-11T02:29:34.523Z,2.72
2022-10-11T02:32:02.034Z,2.90
2022-10-11T02:34:36.791Z,2.80
2022-10-11T02:37:07.157Z,3.25
2022-10-11T02:39:42.241Z,2.47
2022-10-11T02:42:22.480Z,2.22
2022-10-11T02:45:03.818Z,2.85
2022-10-11T02:47:31.804Z,1.90
2022-10-11T02:50:02.151Z,2.70
2022-10-11T02:52:29.457Z,2.90
2022-10-11T02:54:56.697Z,2.92
2022-10-11T02:57:23.963Z,2.65
2022-10-11T02:59:51.227Z,3.30
2022-10-11T03:02:18.483Z,2.65
2022-10-11T03:04:46.175Z,3.10
2022-10-11T03:07:14.773Z,2.67
2022-10-11T03:09:42.347Z,3.45
2022-10-11T03:12:09.649Z,2.80
2022-10-11T03:14:36.864Z,2.67
2022-10-11T03:17:31.169Z,2.25
2022-10-11T03:19:52.504Z,2.75
2022-10-11T03:22:28.375Z,2.58
2022-10-11T03:24:59.666Z,2.30
2022-10-11T03:27:29.837Z,3.10
2022-10-11T03:29:57.763Z,2.17
2022-10-11T03:32:25.495Z,2.65
2022-10-11T03:34:52.881Z,2.67
2022-10-11T03:37:20.422Z,2.33
2022-10-11T03:39:47.797Z,2.15
2022-10-11T03:42:14.976Z,2.35
2022-10-11T03:44:42.314Z,3.35
2022-10-11T03:47:09.868Z,2.47
2022-10-11T03:49:41.312Z,3.08
2022-10-11T03:52:11.101Z,2.90
2022-10-11T03:54:38.370Z,2.65
2022-10-11T03:57:05.607Z,3.08
2022-10-11T03:59:33.049Z,2.50
2022-10-11T04:02:00.396Z,2.55
2022-10-11T04:04:27.705Z,2.97
2022-10-11T04:06:54.910Z,2.22
2022-10-11T04:09:22.325Z,2.90
2022-10-11T04:11:49.838Z,2.83
2022-10-11T04:14:17.200Z,2.75
2022-10-11T04:16:44.463Z,2.85
2022-10-11T04:19:14.530Z,3.08
2022-10-11T04:21:41.724Z,3.00
2022-10-11T04:24:11.052Z,2.70
2022-10-11T04:26:39.003Z,2.80
2022-10-11T04:29:06.220Z,3.15
2022-10-11T04:31:33.472Z,3.13
2022-10-11T04:34:01.163Z,2.85
2022-10-11T04:36:28.564Z,2.78
2022-10-11T04:38:56.275Z,2.75
2022-10-11T04:41:23.538Z,2.30
2022-10-11T04:43:50.754Z,2.33
2022-10-11T04:46:17.983Z,2.58
2022-10-11T04:48:45.189Z,3.25
2022-10-11T04:51:12.492Z,2.80
2022-10-11T04:53:39.739Z,2.60
2022-10-11T04:56:10.944Z,2.83
2022-10-11T04:58:40.942Z,2.88
2022-10-11T05:01:09.399Z,3.08
2022-10-11T05:03:59.931Z,2.55
2022-10-11T05:06:36.848Z,2.63
2022-10-11T05:09:08.679Z,2.80
2022-10-11T05:12:00.117Z,2.67
2022-10-11T05:14:33.954Z,3.22
2022-10-11T05:17:01.242Z,3.38
2022-10-11T05:19:28.600Z,4.45
2022-10-11T05:21:56.149Z,6.72
2022-10-11T05:24:26.453Z,7.15
2022-10-11T05:29:20.998Z,3.92
2022-10-11T05:31:48.263Z,3.85
2022-10-11T05:34:15.467Z,3.08
2022-10-11T05:36:42.860Z,4.15
2022-10-11T05:39:12.152Z,3.05
2022-10-11T05:41:49.368Z,2.90
2022-10-11T05:44:17.178Z,3.08
2022-10-11T05:46:44.507Z,3.33
2022-10-11T05:49:17.331Z,2.38
2022-10-11T05:51:44.748Z,2.70
2022-10-11T05:54:11.987Z,2.72
2022-10-11T05:56:41.849Z,2.78
2022-10-11T05:59:11.227Z,2.35
2022-10-11T06:01:38.999Z,3.13
2022-10-11T06:04:06.716Z,3.55
2022-10-11T06:06:34.118Z,2.63
2022-10-11T06:09:01.405Z,3.30
2022-10-11T06:11:34.269Z,2.92
2022-10-11T06:14:01.569Z,2.88
2022-10-11T06:16:28.759Z,3.80
2022-10-11T06:18:57.371Z,2.83
2022-10-11T06:21:25.169Z,3.83
2022-10-11T06:23:58.310Z,3.10
2022-10-11T06:26:28.900Z,5.10
2022-10-11T06:28:56.493Z,3.10
2022-10-11T06:31:24.281Z,3.58
2022-10-11T06:33:51.703Z,4.30
2022-10-11T06:36:18.971Z,4.32
2022-10-11T06:38:46.201Z,3.03
2022-10-11T06:41:16.848Z,4.13
2022-10-11T06:43:44.586Z,4.53
2022-10-11T06:46:12.613Z,3.03
2022-10-11T06:48:43.734Z,2.80
2022-10-11T06:51:12.059Z,3.40
2022-10-11T06:53:39.372Z,3.75
2022-10-11T06:56:13.079Z,3.33
2022-10-11T06:58:40.586Z,3.38
2022-10-11T07:01:10.599Z,3.50
2022-10-11T07:03:37.917Z,3.78
2022-10-11T07:06:20.322Z,3.55
2022-10-11T07:08:48.551Z,4.57
2022-10-11T07:11:18.181Z,5.22
2022-10-11T07:13:54.730Z,3.72
2022-10-11T07:16:22.664Z,4.38
2022-10-11T07:18:58.817Z,3.95
2022-10-11T07:21:28.426Z,2.95
2022-10-11T07:23:55.670Z,3.00
2022-10-11T07:26:22.955Z,3.25
2022-10-11T07:28:50.308Z,2.92
2022-10-11T07:31:20.873Z,3.70
2022-10-11T07:33:48.717Z,3.85
2022-10-11T07:36:16.438Z,3.75
2022-10-11T07:38:45.769Z,3.47
2022-10-11T07:41:13.212Z,4.70
2022-10-11T07:43:40.551Z,5.50
2022-10-11T07:46:08.233Z,5.07
2022-10-11T07:48:37.120Z,4.20
2022-10-11T07:51:10.725Z,3.47
2022-10-11T07:53:42.446Z,3.75
2022-10-11T07:56:12.559Z,3.58
2022-10-11T07:58:40.632Z,3.72
2022-10-11T08:01:08.893Z,3.70
2022-10-11T08:03:36.965Z,3.40
2022-10-11T08:06:07.447Z,4.22
2022-10-11T08:08:35.740Z,2.63
2022-10-11T08:11:03.127Z,2.90
2022-10-11T08:13:30.497Z,3.08
2022-10-11T08:15:58.445Z,2.80
2022-10-11T08:18:26.286Z,3.42
2022-10-11T08:20:53.606Z,3.78
2022-10-11T08:23:21.042Z,3.55
2022-10-11T08:25:48.439Z,3.33
2022-10-11T08:28:17.824Z,2.97
2022-10-11T08:30:52.773Z,3.55
2022-10-11T08:33:23.112Z,3.67
2022-10-11T08:35:51.442Z,3.97
2022-10-11T08:38:19.544Z,3.67
2022-10-11T08:41:14.784Z,3.88
2022-10-11T08:43:56.807Z,3.22
2022-10-11T08:46:30.745Z,3.45
2022-10-11T08:48:58.395Z,3.78
2022-10-11T08:52:00.052Z,3.45
2022-10-11T08:54:35.497Z,4.82
2022-10-11T08:57:05.394Z,4.63
2022-10-11T08:59:45.053Z,3.75
2022-10-11T09:02:55.544Z,4.10
2022-10-11T09:05:20.755Z,4.53
2022-10-11T09:08:26.817Z,5.35
2022-10-11T09:11:14.382Z,4.35
2022-10-11T09:13:53.717Z,4.80
2022-10-11T09:16:47.157Z,4.63
2022-10-11T09:19:37.423Z,3.38
2022-10-11T09:25:11.977Z,3.40
2022-10-11T09:28:02.464Z,3.67
2022-10-11T09:30:31.382Z,3.20
2022-10-11T09:33:08.102Z,4.38
2022-10-11T09:35:47.106Z,4.30
2022-10-11T09:38:25.188Z,3.92
2022-10-11T09:41:00.697Z,3.63
2022-10-11T09:43:28.088Z,3.45
2022-10-11T09:45:55.292Z,3.70
2022-10-11T09:48:34.456Z,3.80
2022-10-11T09:51:07.369Z,3.38
2022-10-11T09:54:00.278Z,3.95
2022-10-11T09:56:30.025Z,3.40
2022-10-11T09:59:08.903Z,3.92
2022-10-11T10:01:36.358Z,4.13
2022-10-11T10:04:12.388Z,3.45
2022-10-11T10:06:40.177Z,4.05
2022-10-11T10:09:31.056Z,4.57
2022-10-11T10:11:58.853Z,4.53
2022-10-11T10:14:28.478Z,5.03
2022-10-11T10:17:04.977Z,4.13
2022-10-11T10:19:48.394Z,5.47
2022-10-11T10:22:20.133Z,3.65
2022-10-11T10:24:49.550Z,3.95
2022-10-11T10:27:28.233Z,3.80
2022-10-11T10:30:14.304Z,3.75
2022-10-11T10:33:00.025Z,4.75
2022-10-11T10:35:32.586Z,4.35
2022-10-11T10:38:19.863Z,4.15
2022-10-11T10:43:27.005Z,4.05
2022-10-11T10:46:19.258Z,4.30
2022-10-11T10:49:23.619Z,4.82
2022-10-11T10:54:23.467Z,4.72
2022-10-11T10:56:50.768Z,8.40
2022-10-11T10:59:23.975Z,8.43
2022-10-11T11:02:11.131Z,5.93
2022-10-11T11:05:04.925Z,5.10
2022-10-11T11:08:02.734Z,5.57
2022-10-11T11:10:59.367Z,4.72
2022-10-11T11:13:48.675Z,4.72
2022-10-11T11:16:25.820Z,4.15
2022-10-11T11:19:23.791Z,3.90
2022-10-11T11:22:13.681Z,3.85
2022-10-11T11:24:52.585Z,3.95
2022-10-11T11:28:17.529Z,4.20
2022-10-11T11:31:06.726Z,4.07
2022-10-11T11:33:48.944Z,3.97
2022-10-11T11:36:22.081Z,3.78
2022-10-11T11:39:03.544Z,3.95
2022-10-11T11:41:37.731Z,3.70
2022-10-11T11:44:12.125Z,5.45
2022-10-11T11:47:03.259Z,4.43
2022-10-11T11:49:32.161Z,3.63
2022-10-11T11:52:00.116Z,3.90
2022-10-11T11:54:42.357Z,3.85
2022-10-11T11:57:39.865Z,3.55
2022-10-11T12:00:14.362Z,3.72
2022-10-11T12:03:00.045Z,3.25
2022-10-11T12:05:32.731Z,3.40
2022-10-11T12:08:07.104Z,3.92
2022-10-11T12:10:49.514Z,3.88
2022-10-11T12:13:48.866Z,3.72
2022-10-11T12:16:17.063Z,3.43
2022-10-11T12:18:56.348Z,3.22
2022-10-11T12:21:33.287Z,3.93
2022-10-11T12:24:20.087Z,3.42
2022-10-11T12:26:49.097Z,3.63
2022-10-11T12:29:29.299Z,3.55
2022-10-11T12:32:00.064Z,3.70
2022-10-11T12:34:35.031Z,3.60
2022-10-11T12:37:17.796Z,2.63
2022-10-11T12:39:55.116Z,3.13
2022-10-11T12:42:27.367Z,3.50
2022-10-11T12:45:13.291Z,3.50
2022-10-11T12:47:48.453Z,3.53
2022-10-11T12:50:37.217Z,3.50
2022-10-11T12:53:17.765Z,3.10
2022-10-11T12:56:27.219Z,3.53
2022-10-11T12:59:03.039Z,3.93
2022-10-11T13:01:40.129Z,3.22
2022-10-11T13:04:11.405Z,3.65
2022-10-11T13:06:45.670Z,2.92
2022-10-11T13:09:29.806Z,3.15
2022-10-11T13:12:06.753Z,2.88
2022-10-11T13:14:41.709Z,3.50
2022-10-11T13:17:19.287Z,3.03
2022-10-11T13:19:51.887Z,3.28
2022-10-11T13:22:22.738Z,3.03
2022-10-11T13:24:50.170Z,3.20
2022-10-11T13:27:22.648Z,3.35
2022-10-11T13:29:52.007Z,8.10
2022-10-11T13:32:25.101Z,3.40
2022-10-11T13:34:57.735Z,3.40
2022-10-11T13:37:27.365Z,3.03
2022-10-11T13:39:55.851Z,3.17
2022-10-11T13:42:30.172Z,3.33
2022-10-11T13:44:58.078Z,3.28
2022-10-11T13:47:28.427Z,3.70
2022-10-11T13:50:19.240Z,3.58
2022-10-11T13:53:05.002Z,3.25
2022-10-11T13:55:34.672Z,3.40
2022-10-11T13:58:04.622Z,3.65
2022-10-11T14:00:34.554Z,2.90
2022-10-11T14:03:14.143Z,3.38
2022-10-11T14:05:43.990Z,3.58
2022-10-11T14:08:37.749Z,2.88
2022-10-11T14:11:07.089Z,3.15
2022-10-11T14:13:45.888Z,3.20
2022-10-11T14:16:28.858Z,3.40
2022-10-11T14:18:58.800Z,2.72
2022-10-11T14:21:34.571Z,3.60
2022-10-11T14:24:05.167Z,3.58
2022-10-11T14:26:35.897Z,2.70
2022-10-11T14:29:09.220Z,2.88
2022-10-11T14:31:41.457Z,3.28
2022-10-11T14:34:19.220Z,3.20
2022-10-11T14:36:46.625Z,3.20
2022-10-11T14:39:16.893Z,2.83
2022-10-11T14:41:44.316Z,2.65
2022-10-11T14:44:12.024Z,2.80
2022-10-11T14:46:40.929Z,3.13
2022-10-11T14:49:17.113Z,2.95
2022-10-11T14:51:46.002Z,3.10
2022-10-11T14:54:14.489Z,2.80
2022-10-11T14:56:41.804Z,2.80
2022-10-11T14:59:12.922Z,2.85
2022-10-11T15:01:40.764Z,6.30
2022-10-11T15:04:09.352Z,2.47
2022-10-11T15:06:38.629Z,2.55
2022-10-11T15:09:06.577Z,2.97
2022-10-11T15:11:37.977Z,3.00
2022-10-11T15:14:06.026Z,2.45
2022-10-11T15:16:34.231Z,2.60
2022-10-11T15:19:01.769Z,2.35
2022-10-11T15:21:29.517Z,2.83
2022-10-11T15:23:56.948Z,2.60
2022-10-11T15:26:27.062Z,2.75
2022-10-11T15:28:55.954Z,3.25
2022-10-11T15:31:24.021Z,3.03
2022-10-11T15:33:51.745Z,2.75
2022-10-11T15:36:21.650Z,2.40
2022-10-11T15:38:49.471Z,2.78
2022-10-11T15:41:18.871Z,2.30
2022-10-11T15:43:48.154Z,2.50
2022-10-11T15:46:20.552Z,2.25
2022-10-11T15:48:48.860Z,3.17
2022-10-11T15:51:16.646Z,2.08
2022-10-11T15:53:44.469Z,2.50
2022-10-11T15:56:17.145Z,3.40
2022-10-11T15:58:44.510Z,2.63
2022-10-11T16:01:19.797Z,2.80
2022-10-11T16:03:49.181Z,2.78
2022-10-11T16:06:18.549Z,2.70
2022-10-11T16:08:46.113Z,2.67
2022-10-11T16:11:13.811Z,2.15
2022-10-11T16:13:41.081Z,2.70
2022-10-11T16:16:10.206Z,2.90
2022-10-11T16:18:38.179Z,2.85
2022-10-11T16:21:08.996Z,3.15
2022-10-11T16:23:36.845Z,2.95
2022-10-11T16:26:07.489Z,2.75
2022-10-11T16:28:35.678Z,2.53
2022-10-11T16:31:08.421Z,2.58
2022-10-11T16:33:45.387Z,2.60
2022-10-11T16:36:35.395Z,2.60
2022-10-11T16:39:18.341Z,2.95
2022-10-11T16:41:46.256Z,2.60
2022-10-11T16:44:17.732Z,2.78
2022-10-11T16:46:48.912Z,3.03
2022-10-11T16:49:17.909Z,3.30
2022-10-11T16:51:45.377Z,3.00
2022-10-11T16:54:16.596Z,2.60
2022-10-11T16:56:46.938Z,2.80
2022-10-11T16:59:14.416Z,3.05
2022-10-11T17:01:41.853Z,2.90
2022-10-11T17:04:09.580Z,3.08
2022-10-11T17:06:36.931Z,3.40
2022-10-11T17:09:04.953Z,3.13
2022-10-11T17:11:33.096Z,3.63
2022-10-11T17:14:01.361Z,3.50
2022-10-11T17:16:29.012Z,3.05
2022-10-11T17:18:56.463Z,3.65
2022-10-11T17:21:24.178Z,3.25
2022-10-11T17:23:51.786Z,3.35
2022-10-11T17:26:28.517Z,4.15
2022-10-11T17:28:57.319Z,3.47
2022-10-11T17:31:25.255Z,3.40
2022-10-11T17:33:54.342Z,3.20
2022-10-11T17:36:36.133Z,3.53
2022-10-11T17:39:07.422Z,3.75
2022-10-11T17:41:35.121Z,3.83
2022-10-11T17:44:03.164Z,3.33
2022-10-11T17:46:33.492Z,3.17
2022-10-11T17:49:04.831Z,3.72
2022-10-11T17:51:32.590Z,3.47
2022-10-11T17:53:59.806Z,3.83
2022-10-11T17:56:32.434Z,3.88
2022-10-11T17:59:03.446Z,3.63
2022-10-11T18:01:30.848Z,3.60
2022-10-11T18:04:00.164Z,5.05
2022-10-11T18:06:29.696Z,5.75
2022-10-11T18:08:57.363Z,4.20
2022-10-11T18:11:24.759Z,3.97
2022-10-11T18:13:52.874Z,4.32
2022-10-11T18:16:24.427Z,4.00
2022-10-11T18:18:51.779Z,4.47
2022-10-11T18:21:19.562Z,3.72
2022-10-11T18:23:47.000Z,3.28
2022-10-11T18:26:16.738Z,3.10
2022-10-11T18:28:44.268Z,4.07
2022-10-11T18:31:14.641Z,3.58
2022-10-11T18:33:45.430Z,3.45
2022-10-11T18:36:14.696Z,3.78
2022-10-11T18:38:46.347Z,3.75
2022-10-11T18:41:16.345Z,3.42
2022-10-11T18:43:48.323Z,3.70
2022-10-11T18:46:15.600Z,3.85
2022-10-11T18:48:44.087Z,4.07
2022-10-11T18:51:16.181Z,4.63
2022-10-11T18:53:43.437Z,4.53
2022-10-11T18:56:12.187Z,3.80
2022-10-11T18:58:40.946Z,3.45
2022-10-11T19:01:09.463Z,4.75
2022-10-11T19:03:37.272Z,4.30
2022-10-11T19:06:17.195Z,4.38
2022-10-11T19:08:49.921Z,4.25
2022-10-11T19:11:21.513Z,4.20
2022-10-11T19:13:55.504Z,4.10
2022-10-11T19:16:23.333Z,3.75
2022-10-11T19:18:51.448Z,4.20
2022-10-11T19:21:19.322Z,4.32
2022-10-11T19:23:48.823Z,4.60
2022-10-11T19:26:17.354Z,6.30
2022-10-11T19:28:45.580Z,4.88
2022-10-11T19:31:16.919Z,4.40
2022-10-11T19:33:45.367Z,4.30
2022-10-11T19:36:16.518Z,4.57
2022-10-11T19:38:48.549Z,4.50
2022-10-11T19:41:18.062Z,3.90
2022-10-11T19:43:46.234Z,4.18
2022-10-11T19:46:20.166Z,4.60
2022-10-11T19:48:51.351Z,4.15
2022-10-11T19:51:23.925Z,4.28
2022-10-11T19:53:58.643Z,4.25
2022-10-11T19:56:27.837Z,3.67
2022-10-11T19:58:55.694Z,4.00
2022-10-11T20:01:25.212Z,4.45
2022-10-11T20:03:55.493Z,3.92
2022-10-11T20:06:24.019Z,4.20
2022-10-11T20:09:10.360Z,4.50
2022-10-11T20:11:39.539Z,4.35
2022-10-11T20:14:06.927Z,3.97
2022-10-11T20:16:34.485Z,3.78
2022-10-11T20:19:02.107Z,3.78
2022-10-11T20:21:30.285Z,4.28
2022-10-11T20:24:00.651Z,3.50
2022-10-11T20:28:57.038Z,3.95
2022-10-11T20:31:31.070Z,3.90
2022-10-11T20:34:01.739Z,3.83
2022-10-11T20:36:30.203Z,4.97
2022-10-11T20:38:58.632Z,4.03
2022-10-11T20:41:31.581Z,4.05
2022-10-11T20:44:00.738Z,4.03
2022-10-11T20:46:29.934Z,4.45
2022-10-11T20:49:02.396Z,4.55
2022-10-11T20:51:31.344Z,4.63
2022-10-11T20:53:59.210Z,5.20
2022-10-11T20:56:27.108Z,4.15
2022-10-11T20:58:55.775Z,3.90
2022-10-11T21:01:31.916Z,4.05
2022-10-11T21:04:00.581Z,3.97
2022-10-11T21:06:28.906Z,3.95
2022-10-11T21:08:56.708Z,4.32
2022-10-11T21:11:32.208Z,3.83
2022-10-11T21:14:01.349Z,4.35
2022-10-11T21:16:29.141Z,3.95
2022-10-11T21:18:58.188Z,4.60
2022-10-11T21:21:26.042Z,4.07
2022-10-11T21:23:54.516Z,4.00
2022-10-11T21:26:22.135Z,3.33
2022-10-11T21:28:49.474Z,4.47
2022-10-11T21:31:18.405Z,4.43
2022-10-11T21:33:46.200Z,4.22
2022-10-11T21:36:15.952Z,4.32
2022-10-11T21:38:43.489Z,4.40
2022-10-11T21:41:14.165Z,3.97
2022-10-11T21:43:41.848Z,4.30
2022-10-11T21:46:18.764Z,4.03
2022-10-11T21:48:46.577Z,4.32
2022-10-11T21:51:20.425Z,4.07
2022-10-11T21:53:47.740Z,4.05
2022-10-11T21:56:15.318Z,4.20
2022-10-11T21:58:42.840Z,4.50
2022-10-11T22:01:11.003Z,4.43
2022-10-11T22:03:38.348Z,4.10
2022-10-11T22:06:06.068Z,4.25
2022-10-11T22:08:33.318Z,4.75
2022-10-11T22:11:01.286Z,4.55
2022-10-11T22:13:30.653Z,3.90
2022-10-11T22:15:57.901Z,4.20
2022-10-11T22:18:25.138Z,4.22
2022-10-11T22:20:52.398Z,4.10
2022-10-11T22:23:19.690Z,4.20
2022-10-11T22:25:46.934Z,4.00
2022-10-11T22:28:14.163Z,3.58
2022-10-11T22:30:41.525Z,4.32
2022-10-11T22:33:08.825Z,4.78
2022-10-11T22:35:37.674Z,3.90
2022-10-11T22:38:06.383Z,4.05
2022-10-11T22:40:33.599Z,5.05
2022-10-11T22:43:00.811Z,4.38
2022-10-11T22:45:28.178Z,4.00
2022-10-11T22:47:55.388Z,4.32
2022-10-11T22:50:22.867Z,4.03
2022-10-11T22:52:50.091Z,4.07
2022-10-11T22:55:20.071Z,3.67
2022-10-11T22:57:47.566Z,4.15
2022-10-11T23:00:15.194Z,4.40
2022-10-11T23:02:42.478Z,4.30
2022-10-11T23:05:09.865Z,4.05
2022-10-11T23:07:37.405Z,4.97
2022-10-11T23:10:05.491Z,4.50
2022-10-11T23:12:32.730Z,3.72
2022-10-11T23:15:00.009Z,4.40
2022-10-11T23:17:27.211Z,3.72
2022-10-11T23:19:54.385Z,3.97
2022-10-11T23:22:21.705Z,4.15
2022-10-11T23:24:48.950Z,4.25
2022-10-11T23:27:16.300Z,5.00
2022-10-11T23:29:43.610Z,5.35
2022-10-11T23:32:11.570Z,5.82
2022-10-11T23:34:38.895Z,5.50
2022-10-11T23:37:06.314Z,6.53
2022-10-11T23:39:33.542Z,6.13
2022-10-11T23:42:00.778Z,5.93
2022-10-11T23:44:28.298Z,6.30
2022-10-11T23:46:55.472Z,5.57
2022-10-11T23:49:22.887Z,5.43
2022-10-11T23:51:50.038Z,5.28
2022-10-11T23:54:17.268Z,5.40
2022-10-11T23:56:44.487Z,5.30
2022-10-11T23:59:11.686Z,5.80
